createdAt,value
2018-07-30T00:00:04.475Z,5.23
2018-07-30T00:02:39.219Z,5.20
2018-07-30T00:05:09.978Z,9.50
2018-07-30T00:07:39.431Z,5.13
2018-07-30T00:10:09.177Z,6.53
2018-07-30T00:12:38.866Z,5.33
2018-07-30T00:15:08.357Z,5.37
2018-07-30T00:17:37.808Z,5.43
2018-07-30T00:20:07.254Z,6.87
2018-07-30T00:22:36.709Z,4.60
2018-07-30T00:25:06.346Z,5.73
2018-07-30T00:27:35.652Z,5.53
2018-07-30T00:30:05.372Z,4.67
2018-07-30T00:32:34.860Z,5.73
2018-07-30T00:35:04.482Z,8.07
2018-07-30T00:37:34.072Z,4.53
2018-07-30T00:40:03.607Z,4.17
2018-07-30T00:42:32.955Z,7.87
2018-07-30T00:45:02.436Z,5.63
2018-07-30T00:47:31.986Z,7.15
2018-07-30T00:50:01.507Z,5.00
2018-07-30T00:52:30.908Z,4.43
2018-07-30T00:55:00.388Z,5.13
2018-07-30T00:57:29.703Z,6.20
2018-07-30T00:59:59.069Z,5.10
2018-07-30T01:02:28.277Z,5.70
2018-07-30T01:04:57.516Z,3.13
2018-07-30T01:07:26.721Z,6.07
2018-07-30T01:09:55.915Z,5.27
2018-07-30T01:12:25.078Z,8.20
2018-07-30T01:14:54.389Z,4.97
2018-07-30T01:17:23.657Z,4.35
2018-07-30T01:19:53.157Z,6.77
2018-07-30T01:22:22.579Z,5.45
2018-07-30T01:24:51.947Z,4.67
2018-07-30T01:27:21.270Z,5.10
2018-07-30T01:29:50.657Z,5.20
2018-07-30T01:32:20.278Z,5.93
2018-07-30T01:34:49.644Z,5.40
2018-07-30T01:37:19.175Z,5.43
2018-07-30T01:39:48.514Z,4.27
2018-07-30T01:42:17.922Z,8.80
2018-07-30T01:44:47.514Z,6.60
2018-07-30T01:47:17.151Z,7.77
2018-07-30T01:49:46.603Z,8.63
2018-07-30T01:52:16.214Z,5.50
2018-07-30T01:54:45.683Z,4.93
2018-07-30T01:57:15.129Z,3.97
2018-07-30T01:59:44.451Z,7.33
2018-07-30T02:02:14.006Z,7.80
2018-07-30T02:04:43.544Z,6.53
2018-07-30T02:07:13.021Z,4.63
2018-07-30T02:09:42.670Z,4.13
2018-07-30T02:12:12.053Z,6.80
2018-07-30T02:14:41.421Z,5.07
2018-07-30T02:17:10.915Z,5.53
2018-07-30T02:19:40.496Z,4.87
2018-07-30T02:22:09.969Z,6.00
2018-07-30T02:24:39.548Z,6.45
2018-07-30T02:27:09.050Z,6.30
2018-07-30T02:29:38.376Z,6.50
2018-07-30T02:32:07.851Z,7.25
2018-07-30T02:34:37.132Z,5.87
2018-07-30T02:37:06.611Z,4.63
2018-07-30T02:39:35.955Z,5.13
2018-07-30T02:42:05.391Z,6.27
2018-07-30T02:44:34.828Z,5.03
2018-07-30T02:47:04.300Z,7.63
2018-07-30T02:49:33.677Z,5.87
2018-07-30T02:52:03.166Z,7.03
2018-07-30T02:54:32.800Z,6.83
2018-07-30T02:57:02.445Z,5.40
2018-07-30T02:59:31.998Z,6.50
2018-07-30T03:02:01.372Z,5.23
2018-07-30T03:04:30.810Z,4.77
2018-07-30T03:07:00.173Z,4.70
2018-07-30T03:09:29.759Z,8.97
2018-07-30T03:11:59.056Z,5.53
2018-07-30T03:14:28.448Z,7.17
2018-07-30T03:16:57.896Z,5.97
2018-07-30T03:19:27.389Z,5.33
2018-07-30T03:21:56.899Z,4.70
2018-07-30T03:24:26.613Z,7.27
2018-07-30T03:26:56.157Z,6.65
2018-07-30T03:29:25.678Z,5.87
2018-07-30T03:31:55.158Z,5.77
2018-07-30T03:34:24.936Z,6.83
2018-07-30T03:36:54.550Z,6.50
2018-07-30T03:39:24.074Z,4.87
2018-07-30T03:41:53.480Z,6.57
2018-07-30T03:44:23.094Z,5.85
2018-07-30T03:46:52.595Z,4.60
2018-07-30T03:49:22.194Z,9.47
2018-07-30T03:51:51.836Z,5.50
2018-07-30T03:54:21.294Z,9.00
2018-07-30T03:56:51.146Z,4.77
2018-07-30T03:59:20.791Z,6.53
2018-07-30T04:01:50.324Z,6.93
2018-07-30T04:04:19.925Z,4.47
2018-07-30T04:06:49.523Z,6.27
2018-07-30T04:09:21.128Z,4.40
2018-07-30T04:11:50.729Z,5.80
2018-07-30T04:14:20.284Z,5.00
2018-07-30T04:16:52.431Z,4.80
2018-07-30T04:19:22.309Z,7.20
2018-07-30T04:21:51.916Z,6.87
2018-07-30T04:24:21.367Z,7.05
2018-07-30T04:26:51.007Z,6.00
2018-07-30T04:29:20.659Z,6.13
2018-07-30T04:31:50.013Z,4.43
2018-07-30T04:34:19.577Z,6.33
2018-07-30T04:36:49.161Z,8.90
2018-07-30T04:39:18.851Z,6.77
2018-07-30T04:41:48.452Z,5.90
2018-07-30T04:44:18.038Z,4.17
2018-07-30T04:46:47.429Z,4.10
2018-07-30T04:49:16.999Z,5.00
2018-07-30T04:51:51.894Z,8.17
2018-07-30T04:54:21.140Z,6.53
2018-07-30T04:56:50.570Z,5.07
2018-07-30T04:59:19.990Z,6.67
2018-07-30T05:01:49.699Z,4.60
2018-07-30T05:04:19.144Z,5.20
2018-07-30T05:06:48.832Z,4.67
2018-07-30T05:09:18.247Z,4.83
2018-07-30T05:11:47.919Z,5.00
2018-07-30T05:14:17.635Z,4.63
2018-07-30T05:16:47.154Z,5.33
2018-07-30T05:19:16.842Z,4.43
2018-07-30T05:21:46.698Z,5.73
2018-07-30T05:24:16.573Z,4.87
2018-07-30T05:26:46.102Z,4.57
2018-07-30T05:29:16.216Z,4.70
2018-07-30T05:31:46.052Z,5.13
2018-07-30T05:34:15.684Z,4.73
2018-07-30T05:36:45.494Z,7.37
2018-07-30T05:39:15.258Z,6.37
2018-07-30T05:41:44.749Z,6.13
2018-07-30T05:44:14.144Z,6.57
2018-07-30T05:46:43.476Z,4.23
2018-07-30T05:49:12.980Z,9.07
2018-07-30T05:51:42.942Z,4.73
2018-07-30T05:54:12.454Z,4.53
2018-07-30T05:56:42.121Z,6.27
2018-07-30T05:59:11.621Z,4.80
2018-07-30T06:01:41.296Z,3.87
2018-07-30T06:04:10.808Z,6.53
2018-07-30T06:06:40.644Z,6.53
2018-07-30T06:09:10.780Z,4.73
2018-07-30T06:11:40.413Z,5.87
2018-07-30T06:14:10.013Z,4.70
2018-07-30T06:16:39.948Z,8.27
2018-07-30T06:19:09.423Z,6.23
2018-07-30T06:21:39.336Z,4.53
2018-07-30T06:24:09.064Z,5.23
2018-07-30T06:26:38.623Z,5.23
2018-07-30T06:29:08.273Z,5.17
2018-07-30T06:31:38.061Z,4.50
2018-07-30T06:34:07.851Z,5.20
2018-07-30T06:36:37.442Z,4.03
2018-07-30T06:39:08.898Z,5.10
2018-07-30T06:41:38.927Z,4.13
2018-07-30T06:44:08.578Z,5.77
2018-07-30T06:46:38.639Z,4.40
2018-07-30T06:49:08.153Z,5.17
2018-07-30T06:51:37.881Z,5.63
2018-07-30T06:54:07.949Z,3.67
2018-07-30T06:56:37.566Z,7.33
2018-07-30T06:59:07.423Z,5.43
2018-07-30T07:01:36.881Z,5.53
2018-07-30T07:04:06.813Z,6.67
2018-07-30T07:06:36.842Z,6.00
2018-07-30T07:09:08.871Z,4.27
2018-07-30T07:11:38.654Z,4.60
2018-07-30T07:14:08.530Z,4.83
2018-07-30T07:16:38.650Z,5.07
2018-07-30T07:19:08.214Z,4.47
2018-07-30T07:21:37.833Z,4.47
2018-07-30T07:24:07.363Z,4.57
2018-07-30T07:26:36.999Z,6.53
2018-07-30T07:29:06.449Z,6.17
2018-07-30T07:31:36.055Z,3.03
2018-07-30T07:34:05.533Z,4.57
2018-07-30T07:36:35.291Z,4.57
2018-07-30T07:39:07.092Z,3.10
2018-07-30T07:41:37.088Z,2.60
2018-07-30T07:44:06.763Z,6.15
2018-07-30T07:46:36.714Z,7.13
2018-07-30T07:49:06.449Z,3.80
2018-07-30T07:51:36.062Z,5.70
2018-07-30T07:54:05.523Z,4.23
2018-07-30T07:56:34.961Z,5.27
2018-07-30T07:59:04.629Z,3.33
2018-07-30T08:01:34.210Z,4.50
2018-07-30T08:04:03.773Z,4.90
2018-07-30T08:06:33.188Z,4.80
2018-07-30T08:09:02.908Z,4.50
2018-07-30T08:11:32.664Z,4.83
2018-07-30T08:14:02.165Z,4.20
2018-07-30T08:16:31.627Z,3.10
2018-07-30T08:19:01.068Z,5.93
2018-07-30T08:21:31.208Z,2.97
2018-07-30T08:24:00.785Z,5.67
2018-07-30T08:26:30.264Z,5.70
2018-07-30T08:29:00.001Z,2.77
2018-07-30T08:31:29.699Z,4.40
2018-07-30T08:33:59.027Z,4.27
2018-07-30T08:36:28.618Z,2.90
2018-07-30T08:38:58.340Z,5.73
2018-07-30T08:41:27.806Z,2.07
2018-07-30T08:43:57.320Z,4.03
2018-07-30T08:46:27.113Z,3.07
2018-07-30T08:48:56.980Z,3.63
2018-07-30T08:51:26.372Z,3.90
2018-07-30T08:53:55.952Z,2.77
2018-07-30T08:56:25.537Z,3.73
2018-07-30T08:58:55.229Z,3.43
2018-07-30T09:01:24.763Z,4.60
2018-07-30T09:03:54.553Z,2.17
2018-07-30T09:06:24.166Z,2.67
2018-07-30T09:08:53.644Z,4.37
2018-07-30T09:11:23.317Z,4.80
2018-07-30T09:13:52.882Z,5.20
2018-07-30T09:16:22.456Z,3.53
2018-07-30T09:18:51.975Z,3.73
2018-07-30T09:21:21.476Z,3.30
2018-07-30T09:23:50.970Z,3.63
2018-07-30T09:26:20.351Z,3.97
2018-07-30T09:28:49.785Z,3.47
2018-07-30T09:31:19.557Z,3.23
2018-07-30T09:33:49.068Z,4.20
2018-07-30T09:36:22.706Z,5.87
2018-07-30T09:38:52.490Z,6.40
2018-07-30T09:41:22.270Z,2.97
2018-07-30T09:43:52.218Z,3.77
2018-07-30T09:46:21.744Z,3.00
2018-07-30T09:48:51.410Z,4.43
2018-07-30T09:51:21.304Z,3.70
2018-07-30T09:53:50.747Z,5.03
2018-07-30T09:56:20.443Z,2.63
2018-07-30T09:58:49.898Z,3.83
2018-07-30T10:01:24.579Z,3.20
2018-07-30T10:03:54.377Z,2.87
2018-07-30T10:06:24.181Z,3.40
2018-07-30T10:08:55.066Z,3.23
2018-07-30T10:11:24.603Z,3.63
2018-07-30T10:13:54.288Z,4.33
2018-07-30T10:16:23.694Z,4.40
2018-07-30T10:18:53.508Z,4.03
2018-07-30T10:21:23.261Z,3.97
2018-07-30T10:23:52.850Z,3.97
2018-07-30T10:26:22.444Z,3.40
2018-07-30T10:28:52.272Z,5.70
2018-07-30T10:31:22.025Z,2.87
2018-07-30T10:33:51.579Z,6.03
2018-07-30T10:36:21.365Z,3.03
2018-07-30T10:38:51.011Z,2.40
2018-07-30T10:41:20.714Z,2.10
2018-07-30T10:43:50.625Z,2.70
2018-07-30T10:46:20.385Z,2.20
2018-07-30T10:48:49.888Z,3.73
2018-07-30T10:51:19.273Z,1.43
2018-07-30T10:53:48.990Z,2.33
2018-07-30T10:56:18.683Z,3.07
2018-07-30T10:58:48.065Z,3.33
2018-07-30T11:01:17.498Z,4.70
2018-07-30T11:03:46.916Z,3.90
2018-07-30T11:06:16.461Z,3.03
2018-07-30T11:08:46.107Z,2.73
2018-07-30T11:11:15.615Z,3.37
2018-07-30T11:13:45.029Z,1.70
2018-07-30T11:16:14.373Z,4.57
2018-07-30T11:18:43.749Z,3.17
2018-07-30T11:21:13.388Z,2.40
2018-07-30T11:23:42.952Z,1.60
2018-07-30T11:26:12.370Z,4.90
2018-07-30T11:28:41.648Z,2.67
2018-07-30T11:31:11.042Z,5.20
2018-07-30T11:33:40.580Z,2.10
2018-07-30T11:36:09.979Z,4.70
2018-07-30T11:38:39.679Z,2.75
2018-07-30T11:41:09.026Z,4.28
2018-07-30T11:43:38.574Z,2.70
2018-07-30T11:46:07.928Z,1.70
2018-07-30T11:48:37.282Z,2.10
2018-07-30T11:51:07.083Z,2.55
2018-07-30T11:53:36.667Z,4.15
2018-07-30T11:56:06.012Z,3.37
2018-07-30T11:58:35.299Z,4.93
2018-07-30T12:01:04.784Z,3.70
2018-07-30T12:03:34.228Z,1.50
2018-07-30T12:06:03.654Z,1.92
2018-07-30T12:08:33.009Z,3.47
2018-07-30T12:11:02.334Z,4.07
2018-07-30T12:13:31.900Z,4.27
2018-07-30T12:16:01.330Z,3.87
2018-07-30T12:18:30.847Z,2.37
2018-07-30T12:21:00.368Z,3.10
2018-07-30T12:23:29.693Z,2.70
2018-07-30T12:25:59.102Z,4.35
2018-07-30T12:28:28.652Z,2.93
2018-07-30T12:30:58.131Z,5.50
2018-07-30T12:33:27.478Z,3.23
2018-07-30T12:35:56.942Z,3.40
2018-07-30T12:38:26.238Z,4.10
2018-07-30T12:40:55.661Z,2.83
2018-07-30T12:43:25.190Z,7.53
2018-07-30T12:45:54.882Z,3.53
2018-07-30T12:48:24.254Z,4.33
2018-07-30T12:50:54.078Z,3.05
2018-07-30T12:53:23.647Z,2.30
2018-07-30T12:55:53.207Z,2.37
2018-07-30T12:58:22.857Z,3.17
2018-07-30T13:00:52.368Z,2.40
2018-07-30T13:03:21.954Z,4.50
2018-07-30T13:05:51.507Z,5.00
2018-07-30T13:08:21.107Z,7.60
2018-07-30T13:10:50.490Z,1.77
2018-07-30T13:13:19.882Z,4.12
2018-07-30T13:15:49.545Z,4.75
2018-07-30T13:18:19.135Z,4.00
2018-07-30T13:20:48.642Z,4.08
2018-07-30T13:23:18.396Z,2.50
2018-07-30T13:25:48.118Z,3.67
2018-07-30T13:28:17.637Z,3.45
2018-07-30T13:30:47.053Z,2.55
2018-07-30T13:33:16.559Z,4.53
2018-07-30T13:35:46.128Z,8.68
2018-07-30T13:38:15.780Z,4.05
2018-07-30T13:40:45.295Z,4.65
2018-07-30T13:43:14.937Z,3.80
2018-07-30T13:45:44.522Z,3.00
2018-07-30T13:48:14.071Z,3.30
2018-07-30T13:50:43.538Z,8.03
2018-07-30T13:53:13.093Z,3.02
2018-07-30T13:55:42.639Z,3.50
2018-07-30T13:58:12.072Z,3.45
2018-07-30T14:00:41.509Z,1.98
2018-07-30T14:03:11.284Z,5.05
2018-07-30T14:05:40.857Z,3.35
2018-07-30T14:08:10.398Z,4.03
2018-07-30T14:10:39.861Z,4.67
2018-07-30T14:13:09.298Z,5.75
2018-07-30T14:15:38.789Z,2.27
2018-07-30T14:18:08.579Z,2.35
2018-07-30T14:20:38.153Z,4.53
2018-07-30T14:23:07.981Z,9.80
2018-07-30T14:25:37.450Z,3.40
2018-07-30T14:28:07.082Z,4.85
2018-07-30T14:30:36.560Z,3.22
2018-07-30T14:33:06.287Z,4.35
2018-07-30T14:35:35.748Z,3.95
2018-07-30T14:38:05.517Z,3.47
2018-07-30T14:40:35.099Z,2.93
2018-07-30T14:43:04.625Z,3.13
2018-07-30T14:45:34.896Z,5.03
2018-07-30T14:48:04.611Z,3.98
2018-07-30T14:50:34.156Z,2.85
2018-07-30T14:53:03.780Z,2.12
2018-07-30T14:55:33.680Z,4.33
2018-07-30T14:58:03.420Z,3.02
2018-07-30T15:00:32.937Z,3.02
2018-07-30T15:03:02.708Z,3.52
2018-07-30T15:05:32.448Z,4.75
2018-07-30T15:08:01.831Z,1.75
2018-07-30T15:10:31.665Z,3.70
2018-07-30T15:13:01.358Z,4.35
2018-07-30T15:15:31.188Z,3.08
2018-07-30T15:18:01.586Z,3.77
2018-07-30T15:20:31.345Z,4.08
2018-07-30T15:23:00.962Z,2.98
2018-07-30T15:25:30.677Z,4.37
2018-07-30T15:28:00.163Z,4.83
2018-07-30T15:30:29.722Z,4.40
2018-07-30T15:37:35.360Z,3.05
2018-07-30T15:40:05.014Z,2.83
2018-07-30T15:42:34.667Z,4.70
2018-07-30T15:45:04.470Z,3.02
2018-07-30T15:47:33.968Z,5.30
2018-07-30T15:50:05.326Z,2.45
2018-07-30T15:52:35.330Z,4.65
2018-07-30T15:55:04.812Z,4.83
2018-07-30T15:57:34.498Z,3.95
2018-07-30T16:02:33.800Z,3.42
2018-07-30T16:05:03.540Z,3.10
2018-07-30T16:07:33.143Z,5.28
2018-07-30T16:12:32.403Z,3.33
2018-07-30T16:15:01.992Z,6.90
2018-07-30T16:17:31.515Z,4.42
2018-07-30T16:20:01.039Z,2.47
2018-07-30T16:22:30.543Z,4.80
2018-07-30T16:25:00.038Z,2.90
2018-07-30T16:27:29.602Z,9.18
2018-07-30T16:29:58.948Z,8.17
2018-07-30T16:32:28.284Z,9.40
2018-07-30T16:34:57.720Z,8.30
2018-07-30T16:37:27.149Z,5.97
2018-07-30T16:39:56.837Z,6.10
2018-07-30T16:42:26.578Z,3.83
2018-07-30T16:44:56.084Z,8.33
2018-07-30T16:47:25.498Z,6.77
2018-07-30T16:49:54.974Z,5.33
2018-07-30T16:52:24.350Z,10.80
2018-07-30T16:54:53.727Z,5.73
2018-07-30T16:57:23.190Z,6.17
2018-07-30T16:59:52.524Z,5.57
2018-07-30T17:02:22.042Z,4.47
2018-07-30T17:04:51.613Z,6.93
2018-07-30T17:07:21.156Z,5.50
2018-07-30T17:09:50.814Z,3.97
2018-07-30T17:12:23.261Z,6.87
2018-07-30T17:14:52.614Z,6.20
2018-07-30T17:17:22.202Z,7.73
2018-07-30T17:19:51.633Z,7.53
2018-07-30T17:22:21.016Z,6.10
2018-07-30T17:24:50.339Z,4.53
2018-07-30T17:27:19.997Z,5.13
2018-07-30T17:29:49.583Z,5.17
2018-07-30T17:32:19.158Z,4.07
2018-07-30T17:34:48.573Z,4.45
2018-07-30T17:37:18.078Z,3.93
2018-07-30T17:39:47.574Z,3.00
2018-07-30T17:42:16.954Z,3.90
2018-07-30T17:44:46.603Z,6.00
2018-07-30T17:47:16.145Z,9.50
2018-07-30T17:49:45.658Z,6.87
2018-07-30T17:52:15.143Z,5.77
2018-07-30T17:54:44.641Z,4.00
2018-07-30T17:57:14.058Z,3.37
2018-07-30T17:59:43.565Z,4.67
2018-07-30T18:02:12.981Z,4.63
2018-07-30T18:04:42.523Z,4.07
2018-07-30T18:07:11.954Z,3.90
2018-07-30T18:09:41.460Z,5.20
2018-07-30T18:12:10.902Z,3.80
2018-07-30T18:14:40.317Z,2.73
2018-07-30T18:17:09.968Z,3.27
2018-07-30T18:19:39.461Z,2.73
2018-07-30T18:22:08.866Z,3.93
2018-07-30T18:24:38.451Z,4.07
2018-07-30T18:27:07.829Z,3.60
2018-07-30T18:29:37.374Z,3.07
2018-07-30T18:32:06.988Z,3.67
2018-07-30T18:34:36.496Z,4.50
2018-07-30T18:37:06.029Z,4.27
2018-07-30T18:39:35.495Z,4.10
2018-07-30T18:42:04.949Z,3.87
2018-07-30T18:44:34.483Z,5.70
2018-07-30T18:47:03.812Z,5.53
2018-07-30T18:49:33.355Z,3.87
2018-07-30T18:52:03.029Z,4.83
2018-07-30T18:54:32.523Z,5.23
2018-07-30T18:57:02.000Z,4.73
2018-07-30T18:59:31.463Z,7.50
2018-07-30T19:02:00.939Z,4.77
2018-07-30T19:04:30.333Z,4.07
2018-07-30T19:06:59.733Z,5.23
2018-07-30T19:09:29.149Z,4.27
2018-07-30T19:11:58.697Z,4.23
2018-07-30T19:14:28.057Z,4.37
2018-07-30T19:16:57.546Z,4.13
2018-07-30T19:19:27.013Z,6.47
2018-07-30T19:21:56.537Z,4.17
2018-07-30T19:24:25.896Z,3.47
2018-07-30T19:26:55.213Z,5.00
2018-07-30T19:29:24.798Z,5.93
2018-07-30T19:31:54.379Z,5.00
2018-07-30T19:34:23.858Z,5.13
2018-07-30T19:36:53.328Z,5.43
2018-07-30T19:39:22.826Z,5.53
2018-07-30T19:41:52.322Z,4.20
2018-07-30T19:44:21.902Z,4.13
2018-07-30T19:46:51.578Z,4.00
2018-07-30T19:49:21.102Z,5.93
2018-07-30T19:51:50.660Z,4.43
2018-07-30T19:54:20.193Z,5.67
2018-07-30T19:56:49.714Z,6.27
2018-07-30T19:59:19.330Z,3.95
2018-07-30T20:01:48.929Z,4.53
2018-07-30T20:04:18.522Z,4.00
2018-07-30T20:06:47.963Z,8.20
2018-07-30T20:09:17.410Z,4.67
2018-07-30T20:11:46.882Z,5.27
2018-07-30T20:14:16.479Z,4.40
2018-07-30T20:16:45.987Z,5.50
2018-07-30T20:19:15.536Z,4.00
2018-07-30T20:21:45.214Z,4.37
2018-07-30T20:24:14.754Z,4.60
2018-07-30T20:26:44.375Z,5.33
2018-07-30T20:29:13.985Z,6.43
2018-07-30T20:31:43.473Z,5.37
2018-07-30T20:34:12.895Z,5.30
2018-07-30T20:36:42.677Z,5.43
2018-07-30T20:39:12.121Z,5.43
2018-07-30T20:41:41.617Z,5.83
2018-07-30T20:44:11.107Z,5.60
2018-07-30T20:46:40.653Z,6.60
2018-07-30T20:49:10.054Z,5.33
2018-07-30T20:51:39.648Z,5.67
2018-07-30T20:54:09.104Z,5.40
2018-07-30T20:56:38.609Z,5.57
2018-07-30T20:59:08.069Z,6.23
2018-07-30T21:01:37.649Z,6.80
2018-07-30T21:04:07.310Z,5.47
2018-07-30T21:06:36.722Z,5.75
2018-07-30T21:09:08.130Z,5.93
2018-07-30T21:11:37.483Z,5.70
2018-07-30T21:14:07.207Z,6.90
2018-07-30T21:16:36.905Z,6.20
2018-07-30T21:19:06.240Z,5.80
2018-07-30T21:21:35.550Z,6.43
2018-07-30T21:24:05.133Z,5.33
2018-07-30T21:26:34.554Z,5.20
2018-07-30T21:29:03.997Z,4.90
2018-07-30T21:31:33.658Z,7.07
2018-07-30T21:34:03.065Z,5.50
2018-07-30T21:36:32.426Z,9.07
2018-07-30T21:39:01.825Z,8.00
2018-07-30T21:41:31.407Z,7.65
2018-07-30T21:44:00.739Z,5.80
2018-07-30T21:46:30.042Z,6.17
2018-07-30T21:48:59.519Z,11.80
2018-07-30T21:51:29.111Z,6.57
2018-07-30T21:53:58.704Z,6.50
2018-07-30T21:56:28.040Z,6.90
2018-07-30T21:58:57.489Z,5.63
2018-07-30T22:01:26.940Z,6.57
2018-07-30T22:03:56.593Z,10.37
2018-07-30T22:06:26.084Z,6.95
2018-07-30T22:08:55.688Z,8.83
2018-07-30T22:11:25.030Z,6.57
2018-07-30T22:13:54.399Z,7.80
2018-07-30T22:16:23.739Z,8.80
2018-07-30T22:18:53.263Z,9.40
2018-07-30T22:21:22.825Z,13.40
2018-07-30T22:23:52.396Z,13.00
2018-07-30T22:26:21.973Z,9.70
2018-07-30T22:28:51.555Z,6.43
2018-07-30T22:31:21.106Z,14.57
2018-07-30T22:33:50.481Z,14.73
2018-07-30T22:36:19.945Z,11.67
2018-07-30T22:38:49.460Z,9.20
2018-07-30T22:41:18.762Z,11.80
2018-07-30T22:43:48.118Z,9.27
2018-07-30T22:46:17.530Z,9.83
2018-07-30T22:48:46.980Z,8.80
2018-07-30T22:51:16.530Z,8.27
2018-07-30T22:53:46.098Z,8.30
2018-07-30T22:56:15.458Z,7.37
2018-07-30T22:58:44.906Z,7.20
2018-07-30T23:01:14.362Z,8.97
2018-07-30T23:03:43.901Z,9.70
2018-07-30T23:06:13.510Z,8.57
2018-07-30T23:08:43.088Z,10.87
2018-07-30T23:11:12.586Z,9.67
2018-07-30T23:13:42.128Z,7.03
2018-07-30T23:16:11.676Z,6.20
2018-07-30T23:18:41.087Z,7.40
2018-07-30T23:21:10.753Z,8.93
2018-07-30T23:23:40.289Z,10.47
2018-07-30T23:26:09.807Z,6.67
2018-07-30T23:28:39.191Z,11.77
2018-07-30T23:31:08.524Z,12.67
2018-07-30T23:33:38.059Z,8.20
2018-07-30T23:36:07.450Z,10.50
2018-07-30T23:38:36.961Z,11.30
2018-07-30T23:41:06.503Z,13.35
2018-07-30T23:43:35.961Z,15.43
2018-07-30T23:46:05.519Z,17.50
2018-07-30T23:48:35.121Z,11.07
2018-07-30T23:51:04.849Z,14.20
2018-07-30T23:53:34.331Z,8.83
2018-07-30T23:56:03.853Z,9.83
2018-07-30T23:58:33.389Z,8.50
